1880 Hurricane NOT_NAMED (1880218N13302)


IBTrACS version v04r00. Visit IBTrACS website for data access.
Please direct all questions to the IBTrACS Q and A forum

Storm track - Intensity - Wind Radii - Intensity Data - Source Data - All data

Summary Information

Storm ID 1880218N13302
Start Aug 4 12Z
Landfall Aug 10 18Z
Max Intensity 95 kt (Aug 11 18Z)
End Aug 11 18Z
ATCF IDs
Track status Best track data.
Spur track This storm is a spur track associated with the main storm: 1880217N16300

Storm track plot

Map of storm track

Intensity plots

Map of storm track

Radial wind information

No radial wind information for this storm


Position and Intensity Table

BASIN ISO_TIME_________ NATURE LAT LON MLC WIND
degrees north degrees east kts
NA 1880-08-04 12:00:00 TS 12.60 -58.30 35
NA 15:00:00 TS 12.70 -58.85 35
NA 18:00:00 TS 12.80 -59.40 35
NA 21:00:00 TS 12.90 -59.94 35
NA 1880-08-05 00:00:00 TS 13.00 -60.50 35
NA 03:00:00 TS 13.10 -61.10 35
NA 06:00:00 TS 13.20 -61.70 35
NA 09:00:00 TS 13.30 -62.26 37
NA 12:00:00 TS 13.40 -62.80 40
NA 15:00:00 TS 13.50 -63.35 40
NA 18:00:00 TS 13.60 -63.90 40
NA 21:00:00 TS 13.69 -64.44 40
NA 1880-08-06 00:00:00 TS 13.80 -65.00 40
NA 03:00:00 TS 13.95 -65.60 40
NA 06:00:00 TS 14.10 -66.20 40
NA 09:00:00 TS 14.21 -66.76 42
NA 12:00:00 TS 14.30 -67.30 45
NA 15:00:00 TS 14.40 -67.85 45
NA 18:00:00 TS 14.50 -68.40 45
NA 21:00:00 TS 14.60 -68.95 45
NA 1880-08-07 00:00:00 TS 14.70 -69.50 45
NA 03:00:00 TS 14.80 -70.06 45
NA 06:00:00 TS 14.90 -70.60 45
NA 09:00:00 TS 15.00 -71.10 47
NA 12:00:00 TS 15.10 -71.60 50
NA 15:00:00 TS 15.20 -72.15 50
NA 18:00:00 TS 15.30 -72.70 50
NA 21:00:00 TS 15.39 -73.18 50
NA 1880-08-08 00:00:00 TS 15.50 -73.70 50
NA 03:00:00 TS 15.65 -74.38 50
NA 06:00:00 TS 15.80 -75.10 50
NA 09:00:00 TS 15.90 -75.76 52
NA 12:00:00 TS 16.00 -76.40 55
NA 15:00:00 TS 16.15 -77.05 55
NA 18:00:00 TS 16.30 -77.70 55
NA 21:00:00 TS 16.38 -78.35 57
NA 1880-08-09 00:00:00 TS 16.50 -79.00 60
NA 03:00:00 TS 16.73 -79.66 60
NA 06:00:00 TS 17.00 -80.30 60
NA 09:00:00 TS 17.25 -80.90 65
NA 12:00:00 TS 17.50 -81.50 70
NA 15:00:00 TS 17.75 -82.15 70
NA 18:00:00 TS 18.00 -82.80 70
NA 21:00:00 TS 18.23 -83.41 72
NA 1880-08-10 00:00:00 TS 18.50 -84.00 75
NA 03:00:00 TS 18.84 -84.61 75
NA 06:00:00 TS 19.20 -85.20 75
NA 09:00:00 TS 19.51 -85.76 77
NA 12:00:00 TS 19.80 -86.30 80
NA 15:00:00 TS 20.10 -86.85 80
NA 18:00:00 TS 20.40 -87.40 80
NA 21:00:00 TS 20.71 -87.96 82
NA 1880-08-11 00:00:00 TS 21.00 -88.50 85
NA 03:00:00 TS 21.26 -89.01 85
NA 06:00:00 TS 21.50 -89.50 85
NA 09:00:00 TS 21.75 -90.00 87
NA 12:00:00 TS 22.00 -90.50 90
NA 15:00:00 TS 22.25 -91.00 92
NA 18:00:00 TS 22.50 -91.50 95

Source Information

Agency Information
USA
TOKYO
CMA
HKO
NEWDELHI
REUNION
BOM
NADI
WELLINGTON
DS824
TD9636
TD9635
NEUMANN
MLC

All available IBTrACS Data

SEASON BASIN SUBBASIN ISO_TIME_________ NATURE LAT LON DIST2LAND LANDFALL IFLAG USA SSHS MLC LAT MLC LON MLC CLASS MLC WIND STORM SPEED STORM DIR
Year degrees north degrees east km km 1 degrees north degrees east kts kts degrees
1880 NA NA 1880-08-04 12:00:00 TS 12.60 -58.30 363 328 _____________O -1 12.60 -58.30 TS 35 11 281
1880 NA NA 15:00:00 TS 12.70 -58.85 320 292 _____________P -1 12.70 -58.85 TS 35 11 281
1880 NA CS 18:00:00 TS 12.80 -59.40 292 273 _____________O -1 12.80 -59.40 TS 35 11 281
1880 NA CS 21:00:00 TS 12.90 -59.94 273 261 _____________P -1 12.90 -59.94 TS 35 11 281
1880 NA CS 1880-08-05 00:00:00 TS 13.00 -60.50 263 258 _____________O -1 13.00 -60.50 TS 35 11 280
1880 NA CS 03:00:00 TS 13.10 -61.10 268 268 _____________P -1 13.10 -61.10 TS 35 12 280
1880 NA CS 06:00:00 TS 13.20 -61.70 279 279 _____________O -1 13.20 -61.70 TS 35 11 280
1880 NA CS 09:00:00 TS 13.30 -62.26 291 291 _____________P -1 13.30 -62.26 TS 37 11 281
1880 NA CS 12:00:00 TS 13.40 -62.80 302 302 _____________O -1 13.40 -62.80 TS 40 11 281
1880 NA CS 15:00:00 TS 13.50 -63.35 315 315 _____________P -1 13.50 -63.35 TS 40 11 281
1880 NA CS 18:00:00 TS 13.60 -63.90 336 335 _____________O -1 13.60 -63.90 TS 40 11 280
1880 NA CS 21:00:00 TS 13.69 -64.44 347 347 _____________P -1 13.69 -64.44 TS 40 11 281
1880 NA CS 1880-08-06 00:00:00 TS 13.80 -65.00 368 368 _____________O -1 13.80 -65.00 TS 40 12 283
1880 NA CS 03:00:00 TS 13.95 -65.60 372 372 _____________P -1 13.95 -65.60 TS 40 12 284
1880 NA CS 06:00:00 TS 14.10 -66.20 391 383 _____________O -1 14.10 -66.20 TS 40 12 283
1880 NA CS 09:00:00 TS 14.21 -66.76 378 363 _____________P -1 14.21 -66.76 TS 42 11 281
1880 NA CS 12:00:00 TS 14.30 -67.30 363 343 _____________O -1 14.30 -67.30 TS 45 11 280
1880 NA CS 15:00:00 TS 14.40 -67.85 336 313 _____________P -1 14.40 -67.85 TS 45 11 281
1880 NA CS 18:00:00 TS 14.50 -68.40 313 298 _____________O -1 14.50 -68.40 TS 45 11 281
1880 NA CS 21:00:00 TS 14.60 -68.95 296 289 _____________P -1 14.60 -68.95 TS 45 11 281
1880 NA CS 1880-08-07 00:00:00 TS 14.70 -69.50 294 291 _____________O -1 14.70 -69.50 TS 45 11 281
1880 NA CS 03:00:00 TS 14.80 -70.06 302 296 _____________P -1 14.80 -70.06 TS 45 11 281
1880 NA CS 06:00:00 TS 14.90 -70.60 296 287 _____________O -1 14.90 -70.60 TS 45 10 281
1880 NA CS 09:00:00 TS 15.00 -71.10 292 279 _____________P -1 15.00 -71.10 TS 47 10 282
1880 NA CS 12:00:00 TS 15.10 -71.60 280 273 _____________O -1 15.10 -71.60 TS 50 10 281
1880 NA CS 15:00:00 TS 15.20 -72.15 281 278 _____________P -1 15.20 -72.15 TS 50 11 281
1880 NA CS 18:00:00 TS 15.30 -72.70 292 292 _____________O -1 15.30 -72.70 TS 50 10 281
1880 NA CS 21:00:00 TS 15.39 -73.18 297 279 _____________P -1 15.39 -73.18 TS 50 10 282
1880 NA CS 1880-08-08 00:00:00 TS 15.50 -73.70 279 268 _____________O -1 15.50 -73.70 TS 50 12 283
1880 NA CS 03:00:00 TS 15.65 -74.38 262 262 _____________P -1 15.65 -74.38 TS 50 14 283
1880 NA CS 06:00:00 TS 15.80 -75.10 262 230 _____________O -1 15.80 -75.10 TS 50 14 281
1880 NA CS 09:00:00 TS 15.90 -75.76 227 208 _____________P -1 15.90 -75.76 TS 52 13 279
1880 NA CS 12:00:00 TS 16.00 -76.40 208 180 _____________O -1 16.00 -76.40 TS 55 13 281
1880 NA CS 15:00:00 TS 16.15 -77.05 180 159 _____________P -1 16.15 -77.05 TS 55 13 284
1880 NA CS 18:00:00 TS 16.30 -77.70 165 165 _____________O -1 16.30 -77.70 TS 55 13 281
1880 NA CS 21:00:00 TS 16.38 -78.35 183 183 _____________P -1 16.38 -78.35 TS 57 13 279
1880 NA CS 1880-08-09 00:00:00 TS 16.50 -79.00 200 198 _____________O -1 16.50 -79.00 TS 60 13 285
1880 NA CS 03:00:00 TS 16.73 -79.66 217 208 _____________P -1 16.73 -79.66 TS 60 13 292
1880 NA CS 06:00:00 TS 17.00 -80.30 242 242 _____________O -1 17.00 -80.30 TS 60 13 294
1880 NA CS 09:00:00 TS 17.25 -80.90 287 283 _____________P -1 17.25 -80.90 TS 65 13 294
1880 NA CS 12:00:00 TS 17.50 -81.50 318 302 _____________O -1 17.50 -81.50 HU 70 13 293
1880 NA CS 15:00:00 TS 17.75 -82.15 297 290 _____________P -1 17.75 -82.15 HU 70 13 292
1880 NA CS 18:00:00 TS 18.00 -82.80 293 282 _____________O -1 18.00 -82.80 HU 70 13 292
1880 NA CS 21:00:00 TS 18.23 -83.41 285 285 _____________P -1 18.23 -83.41 HU 72 12 294
1880 NA CS 1880-08-10 00:00:00 TS 18.50 -84.00 300 297 _____________O -1 18.50 -84.00 HU 75 13 298
1880 NA CS 03:00:00 TS 18.84 -84.61 304 233 _____________P -1 18.84 -84.61 HU 75 13 302
1880 NA CS 06:00:00 TS 19.20 -85.20 233 178 _____________O -1 19.20 -85.20 HU 75 13 301
1880 NA CS 09:00:00 TS 19.51 -85.76 167 119 _____________P -1 19.51 -85.76 HU 77 12 300
1880 NA CS 12:00:00 TS 19.80 -86.30 119 68 _____________O -1 19.80 -86.30 HU 80 12 300
1880 NA CS 15:00:00 TS 20.10 -86.85 61 0 _____________P -1 20.10 -86.85 HU 80 12 300
1880 NA NA 18:00:00 TS 20.40 -87.40 0 0 _____________O -1 20.40 -87.40 HU 80 12 300
1880 NA NA 21:00:00 TS 20.71 -87.96 0 0 _____________P -1 20.71 -87.96 HU 82 12 300
1880 NA NA 1880-08-11 00:00:00 TS 21.00 -88.50 0 0 _____________O -1 21.00 -88.50 HU 85 11 299
1880 NA NA 03:00:00 TS 21.26 -89.01 0 0 _____________P -1 21.26 -89.01 HU 85 11 298
1880 NA GM 06:00:00 TS 21.50 -89.50 30 30 _____________O -1 21.50 -89.50 HU 85 10 298
1880 NA GM 09:00:00 TS 21.75 -90.00 56 56 _____________P -1 21.75 -90.00 HU 87 11 298
1880 NA GM 12:00:00 TS 22.00 -90.50 102 102 _____________O -1 22.00 -90.50 HU 90 11 298
1880 NA GM 15:00:00 TS 22.25 -91.00 142 142 _____________P -1 22.25 -91.00 HU 92 11 298
1880 NA GM 18:00:00 TS 22.50 -91.50 199 _____________O -1 22.50 -91.50 HU 95 11 298